createdAt,value
2018-11-25T00:00:18.117Z,19.97
2018-11-25T00:02:45.806Z,20.23
2018-11-25T00:05:13.393Z,21.80
2018-11-25T00:07:41.258Z,20.67
2018-11-25T00:10:09.205Z,21.33
2018-11-25T00:12:36.799Z,20.53
2018-11-25T00:15:06.289Z,20.30
2018-11-25T00:17:33.913Z,19.23
2018-11-25T00:20:01.640Z,17.63
2018-11-25T00:22:35.196Z,18.50
2018-11-25T00:25:10.027Z,17.40
2018-11-25T00:27:37.644Z,18.70
2018-11-25T00:30:08.158Z,16.53
2018-11-25T00:32:35.808Z,17.27
2018-11-25T00:35:03.508Z,15.50
2018-11-25T00:37:31.081Z,18.33
2018-11-25T00:39:58.704Z,17.30
2018-11-25T00:42:26.355Z,16.87
2018-11-25T00:44:54.032Z,17.23
2018-11-25T00:47:21.720Z,18.40
2018-11-25T00:49:49.344Z,18.00
2018-11-25T00:52:16.925Z,17.10
2018-11-25T00:54:44.715Z,16.30
2018-11-25T00:57:12.366Z,17.30
2018-11-25T00:59:39.982Z,17.20
2018-11-25T01:02:07.650Z,16.13
2018-11-25T01:04:35.290Z,17.93
2018-11-25T01:07:02.898Z,19.80
2018-11-25T01:09:30.568Z,17.60
2018-11-25T01:11:58.150Z,17.63
2018-11-25T01:14:25.794Z,16.43
2018-11-25T01:16:53.748Z,17.30
2018-11-25T01:19:21.497Z,18.53
2018-11-25T01:21:49.186Z,16.43
2018-11-25T01:24:17.226Z,15.90
2018-11-25T01:26:44.858Z,16.97
2018-11-25T01:29:12.522Z,18.37
2018-11-25T01:31:40.505Z,17.93
2018-11-25T01:34:08.417Z,17.33
2018-11-25T01:36:36.148Z,17.80
2018-11-25T01:39:05.020Z,16.70
2018-11-25T01:41:32.710Z,15.83
2018-11-25T01:44:00.451Z,19.43
2018-11-25T01:46:28.085Z,17.87
2018-11-25T01:48:55.684Z,18.53
2018-11-25T01:51:23.368Z,20.77
2018-11-25T01:53:50.998Z,16.20
2018-11-25T01:56:18.630Z,17.50
2018-11-25T01:58:46.368Z,16.30
2018-11-25T02:01:14.102Z,18.37
2018-11-25T02:03:42.470Z,19.40
2018-11-25T02:06:10.100Z,19.00
2018-11-25T02:08:37.791Z,16.00
2018-11-25T02:11:05.986Z,17.27
2018-11-25T02:13:33.624Z,17.90
2018-11-25T02:16:01.292Z,14.50
2018-11-25T02:18:29.098Z,15.27
2018-11-25T02:20:56.827Z,17.07
2018-11-25T02:23:24.507Z,16.30
2018-11-25T02:25:52.346Z,18.27
2018-11-25T02:28:20.013Z,18.80
2018-11-25T02:30:47.701Z,19.67
2018-11-25T02:33:15.279Z,17.90
2018-11-25T02:35:42.894Z,17.67
2018-11-25T02:38:10.547Z,17.30
2018-11-25T02:40:38.134Z,18.17
2018-11-25T02:43:05.875Z,17.10
2018-11-25T02:45:33.488Z,18.83
2018-11-25T02:48:01.290Z,17.77
2018-11-25T02:50:30.549Z,18.57
2018-11-25T02:53:01.912Z,17.67
2018-11-25T02:55:29.549Z,20.40
2018-11-25T02:57:57.237Z,19.10
2018-11-25T03:00:24.866Z,19.10
2018-11-25T03:02:52.632Z,18.17
2018-11-25T03:05:20.448Z,22.17
2018-11-25T03:07:48.137Z,20.13
2018-11-25T03:10:15.802Z,19.23
2018-11-25T03:12:43.682Z,18.30
2018-11-25T03:15:12.436Z,19.13
2018-11-25T03:17:40.106Z,17.73
2018-11-25T03:20:12.735Z,17.57
2018-11-25T03:22:40.445Z,19.13
2018-11-25T03:25:12.893Z,17.60
2018-11-25T03:27:40.545Z,16.90
2018-11-25T03:30:09.850Z,18.53
2018-11-25T03:32:37.555Z,18.47
2018-11-25T03:35:05.534Z,17.47
2018-11-25T03:37:33.346Z,18.73
2018-11-25T03:40:00.927Z,16.63
2018-11-25T03:42:28.565Z,16.23
2018-11-25T03:44:56.284Z,18.30
2018-11-25T03:47:24.011Z,16.60
2018-11-25T03:49:51.661Z,15.47
2018-11-25T03:52:19.482Z,16.80
2018-11-25T03:54:47.132Z,16.77
2018-11-25T03:57:14.758Z,15.83
2018-11-25T03:59:42.412Z,15.77
2018-11-25T04:02:10.223Z,18.20
2018-11-25T04:04:37.832Z,16.60
2018-11-25T04:07:05.797Z,18.53
2018-11-25T04:09:33.435Z,18.33
2018-11-25T04:12:01.383Z,19.03
2018-11-25T04:14:28.921Z,17.80
2018-11-25T04:16:56.552Z,18.80
2018-11-25T04:19:24.449Z,19.33
2018-11-25T04:21:52.062Z,17.97
2018-11-25T04:24:19.681Z,17.13
2018-11-25T04:26:47.309Z,19.63
2018-11-25T04:29:15.111Z,19.80
2018-11-25T04:31:42.874Z,17.37
2018-11-25T04:34:10.523Z,17.43
2018-11-25T04:36:38.246Z,17.33
2018-11-25T04:39:08.295Z,16.60
2018-11-25T04:41:35.997Z,17.70
2018-11-25T04:44:03.820Z,18.10
2018-11-25T04:46:31.545Z,17.27
2018-11-25T04:48:59.221Z,17.30
2018-11-25T04:51:27.090Z,15.63
2018-11-25T04:53:54.751Z,15.50
2018-11-25T04:56:22.431Z,16.33
2018-11-25T04:58:50.093Z,17.03
2018-11-25T05:01:18.043Z,16.60
2018-11-25T05:03:45.805Z,16.77
2018-11-25T05:06:13.602Z,16.33
2018-11-25T05:08:41.205Z,16.17
2018-11-25T05:11:09.026Z,15.57
2018-11-25T05:13:36.735Z,17.77
2018-11-25T05:16:04.673Z,17.67
2018-11-25T05:18:32.321Z,18.07
2018-11-25T05:20:59.970Z,19.50
2018-11-25T05:23:27.758Z,17.50
2018-11-25T05:25:55.480Z,17.93
2018-11-25T05:28:23.097Z,16.60
2018-11-25T05:30:50.790Z,16.97
2018-11-25T05:33:19.077Z,16.70
2018-11-25T05:35:46.734Z,16.77
2018-11-25T05:38:14.443Z,16.63
2018-11-25T05:40:42.081Z,14.47
2018-11-25T05:43:21.442Z,16.57
2018-11-25T05:45:49.185Z,14.33
2018-11-25T05:48:16.895Z,15.90
2018-11-25T05:50:44.599Z,15.73
2018-11-25T05:53:12.382Z,13.30
2018-11-25T05:55:40.081Z,12.87
2018-11-25T05:58:07.696Z,14.83
2018-11-25T06:00:35.401Z,13.63
2018-11-25T06:03:03.110Z,13.33
2018-11-25T06:05:30.731Z,13.73
2018-11-25T06:07:58.444Z,14.93
2018-11-25T06:10:26.176Z,26.27
2018-11-25T06:12:53.798Z,37.10
2018-11-25T06:15:22.618Z,26.33
2018-11-25T06:17:50.322Z,20.70
2018-11-25T06:20:18.047Z,20.10
2018-11-25T06:22:46.326Z,19.30
2018-11-25T06:25:15.820Z,18.20
2018-11-25T06:27:43.556Z,18.03
2018-11-25T06:30:15.437Z,18.67
2018-11-25T06:32:43.519Z,17.57
2018-11-25T06:35:12.712Z,19.43
2018-11-25T06:37:40.619Z,17.33
2018-11-25T06:40:10.623Z,17.50
2018-11-25T06:42:38.671Z,18.13
2018-11-25T06:45:15.880Z,18.10
2018-11-25T06:47:43.827Z,18.47
2018-11-25T06:50:12.487Z,19.90
2018-11-25T06:52:40.147Z,20.50
2018-11-25T06:55:09.488Z,18.37
2018-11-25T06:57:37.873Z,19.00
2018-11-25T07:00:11.026Z,21.93
2018-11-25T07:02:38.830Z,24.20
2018-11-25T07:05:07.010Z,23.37
2018-11-25T07:07:34.969Z,22.13
2018-11-25T07:10:03.171Z,21.60
2018-11-25T07:12:31.298Z,20.80
2018-11-25T07:14:59.871Z,23.33
2018-11-25T07:17:27.462Z,22.60
2018-11-25T07:19:55.182Z,22.90
2018-11-25T07:22:22.953Z,24.10
2018-11-25T07:24:50.899Z,21.57
2018-11-25T07:27:18.626Z,23.57
2018-11-25T07:29:46.360Z,24.60
2018-11-25T07:32:14.042Z,23.50
2018-11-25T07:34:42.049Z,23.33
2018-11-25T07:37:09.798Z,21.73
2018-11-25T07:39:37.548Z,22.63
2018-11-25T07:42:05.340Z,25.27
2018-11-25T07:44:33.284Z,23.37
2018-11-25T07:47:00.911Z,22.93
2018-11-25T07:49:28.702Z,23.00
2018-11-25T07:51:56.348Z,22.47
2018-11-25T07:54:23.993Z,23.07
2018-11-25T07:56:51.711Z,23.33
2018-11-25T07:59:19.367Z,23.67
2018-11-25T08:01:47.003Z,21.30
2018-11-25T08:04:14.716Z,21.40
2018-11-25T08:06:42.408Z,23.27
2018-11-25T08:09:11.280Z,32.80
2018-11-25T08:11:39.194Z,29.20
2018-11-25T08:14:06.914Z,26.27
2018-11-25T08:16:34.778Z,23.63
2018-11-25T08:19:02.570Z,25.90
2018-11-25T08:21:30.243Z,24.43
2018-11-25T08:23:58.013Z,25.03
2018-11-25T08:26:25.686Z,27.50
2018-11-25T08:28:53.367Z,24.37
2018-11-25T08:31:21.227Z,22.00
2018-11-25T08:33:49.135Z,24.43
2018-11-25T08:36:16.775Z,23.50
2018-11-25T08:38:44.516Z,24.63
2018-11-25T08:41:12.367Z,22.87
2018-11-25T08:43:40.249Z,24.60
2018-11-25T08:46:07.980Z,24.93
2018-11-25T08:48:36.535Z,27.33
2018-11-25T08:51:04.338Z,33.80
2018-11-25T08:53:32.022Z,33.63
2018-11-25T08:55:59.797Z,30.83
2018-11-25T08:58:27.430Z,27.27
2018-11-25T09:00:55.091Z,26.40
2018-11-25T09:03:22.997Z,26.40
2018-11-25T09:05:50.616Z,22.93
2018-11-25T09:08:18.325Z,26.33
2018-11-25T09:10:46.039Z,22.50
2018-11-25T09:13:13.784Z,22.23
2018-11-25T09:15:41.975Z,23.50
2018-11-25T09:18:10.031Z,19.57
2018-11-25T09:20:38.001Z,22.13
2018-11-25T09:23:05.831Z,22.13
2018-11-25T09:25:33.401Z,21.53
2018-11-25T09:28:02.340Z,20.60
2018-11-25T09:30:31.206Z,22.03
2018-11-25T09:32:58.996Z,22.73
2018-11-25T09:35:26.666Z,22.90
2018-11-25T09:37:54.670Z,22.47
2018-11-25T09:40:23.520Z,23.10
2018-11-25T09:42:51.207Z,24.27
2018-11-25T09:45:19.731Z,25.17
2018-11-25T09:47:47.726Z,24.37
2018-11-25T09:50:17.559Z,24.20
2018-11-25T09:52:45.433Z,22.27
2018-11-25T09:55:14.158Z,21.83
2018-11-25T09:57:43.023Z,23.10
2018-11-25T10:00:23.743Z,24.93
2018-11-25T10:02:51.433Z,24.30
2018-11-25T10:05:19.653Z,27.30
2018-11-25T10:07:48.357Z,30.43
2018-11-25T10:10:18.487Z,26.57
2018-11-25T10:12:47.555Z,25.33
2018-11-25T10:15:16.387Z,23.50
2018-11-25T10:17:44.063Z,23.30
2018-11-25T10:20:14.690Z,21.90
2018-11-25T10:22:42.646Z,22.10
2018-11-25T10:25:11.438Z,22.83
2018-11-25T10:27:39.100Z,22.27
2018-11-25T10:30:10.627Z,22.47
2018-11-25T10:32:38.316Z,22.90
2018-11-25T10:35:06.680Z,26.90
2018-11-25T10:37:34.446Z,44.30
2018-11-25T10:40:02.161Z,34.40
2018-11-25T10:42:30.333Z,27.90
2018-11-25T10:44:58.238Z,25.30
2018-11-25T10:47:26.073Z,24.20
2018-11-25T10:49:54.098Z,23.97
2018-11-25T10:52:22.039Z,24.27
2018-11-25T10:54:50.095Z,22.80
2018-11-25T10:57:17.919Z,23.90
2018-11-25T10:59:45.600Z,23.27
2018-11-25T11:02:18.901Z,25.27
2018-11-25T11:04:52.749Z,24.27
2018-11-25T11:07:22.363Z,22.20
2018-11-25T11:09:50.869Z,22.70
2018-11-25T11:12:18.740Z,22.30
2018-11-25T11:14:46.377Z,22.70
2018-11-25T11:17:14.018Z,24.77
2018-11-25T11:19:41.826Z,23.20
2018-11-25T11:22:09.660Z,23.30
2018-11-25T11:24:37.371Z,34.27
2018-11-25T11:27:05.112Z,45.50
2018-11-25T11:29:32.958Z,33.97
2018-11-25T11:32:01.119Z,28.30
2018-11-25T11:34:28.984Z,26.17
2018-11-25T11:36:57.340Z,26.93
2018-11-25T11:39:24.991Z,27.97
2018-11-25T11:41:53.002Z,28.53
2018-11-25T11:44:20.784Z,26.00
2018-11-25T11:46:48.651Z,25.50
2018-11-25T11:49:16.611Z,26.63
2018-11-25T11:51:44.538Z,27.87
2018-11-25T11:54:12.354Z,25.57
2018-11-25T11:56:40.449Z,24.30
2018-11-25T11:59:07.814Z,25.10
2018-11-25T12:01:35.518Z,28.57
2018-11-25T12:04:03.385Z,26.37
2018-11-25T12:06:31.482Z,25.47
2018-11-25T12:08:59.534Z,24.97
2018-11-25T12:11:27.892Z,26.43
2018-11-25T12:13:56.499Z,26.80
2018-11-25T12:16:24.288Z,27.13
2018-11-25T12:18:52.358Z,26.90
2018-11-25T12:21:20.371Z,28.40
2018-11-25T12:23:48.210Z,25.80
2018-11-25T12:26:16.010Z,24.57
2018-11-25T12:28:43.773Z,25.10
2018-11-25T12:31:11.484Z,24.67
2018-11-25T12:33:39.225Z,25.20
2018-11-25T12:36:06.905Z,23.87
2018-11-25T12:38:34.598Z,25.60
2018-11-25T12:41:02.409Z,25.60
2018-11-25T12:43:30.340Z,23.60
2018-11-25T12:45:58.263Z,25.30
2018-11-25T12:48:26.231Z,25.60
2018-11-25T12:50:54.298Z,25.30
2018-11-25T12:53:22.289Z,24.73
2018-11-25T12:55:50.214Z,26.77
2018-11-25T12:58:18.268Z,31.00
2018-11-25T13:00:47.584Z,46.30
2018-11-25T13:03:15.289Z,35.77
2018-11-25T13:05:46.162Z,30.27
2018-11-25T13:08:12.987Z,28.00
2018-11-25T13:10:41.124Z,29.93
2018-11-25T13:13:09.701Z,29.77
2018-11-25T13:15:37.500Z,28.07
2018-11-25T13:18:06.552Z,32.40
2018-11-25T13:20:34.424Z,29.97
2018-11-25T13:23:02.304Z,27.77
2018-11-25T13:25:30.055Z,27.63
2018-11-25T13:27:57.769Z,31.17
2018-11-25T13:30:28.107Z,30.77
2018-11-25T13:32:56.784Z,28.77
2018-11-25T13:35:25.747Z,28.17
2018-11-25T13:37:53.795Z,27.20
2018-11-25T13:40:21.571Z,26.47
2018-11-25T13:42:49.440Z,25.70
2018-11-25T13:45:17.341Z,25.30
2018-11-25T13:47:45.240Z,27.07
2018-11-25T13:50:13.272Z,27.07
2018-11-25T13:52:40.816Z,27.40
2018-11-25T13:55:15.079Z,27.30
2018-11-25T13:57:43.009Z,28.80
2018-11-25T14:00:15.795Z,28.10
2018-11-25T14:02:43.492Z,27.13
2018-11-25T14:05:11.581Z,25.93
2018-11-25T14:07:39.298Z,25.20
2018-11-25T14:10:11.103Z,25.30
2018-11-25T14:12:38.953Z,27.10
2018-11-25T14:15:09.315Z,26.17
2018-11-25T14:17:37.009Z,27.10
2018-11-25T14:20:06.661Z,25.37
2018-11-25T14:22:34.788Z,25.07
2018-11-25T14:25:02.601Z,25.77
2018-11-25T14:27:30.413Z,25.20
2018-11-25T14:29:58.426Z,25.27
2018-11-25T14:32:26.160Z,24.20
2018-11-25T14:34:56.766Z,23.17
2018-11-25T14:37:24.696Z,22.17
2018-11-25T14:39:52.675Z,24.10
2018-11-25T14:42:20.509Z,24.23
2018-11-25T14:44:48.377Z,23.70
2018-11-25T14:47:16.033Z,23.73
2018-11-25T14:49:43.724Z,23.23
2018-11-25T14:52:11.499Z,24.07
2018-11-25T14:54:39.346Z,24.10
2018-11-25T14:57:06.872Z,23.70
2018-11-25T14:59:34.744Z,24.60
2018-11-25T15:02:02.480Z,24.53
2018-11-25T15:04:36.074Z,25.40
2018-11-25T15:06:57.878Z,24.60
2018-11-25T15:09:25.703Z,44.97
2018-11-25T15:11:53.589Z,34.20
2018-11-25T15:14:21.234Z,26.47
2018-11-25T15:16:49.030Z,22.43
2018-11-25T15:19:16.948Z,19.93
2018-11-25T15:21:44.712Z,18.43
2018-11-25T15:24:13.255Z,17.90
2018-11-25T15:26:41.163Z,19.17
2018-11-25T15:29:09.182Z,18.50
2018-11-25T15:31:36.951Z,18.40
2018-11-25T15:34:04.746Z,20.30
2018-11-25T15:36:32.524Z,29.60
2018-11-25T15:39:00.269Z,21.47
2018-11-25T15:41:28.047Z,19.53
2018-11-25T15:43:55.848Z,17.37
2018-11-25T15:46:23.661Z,17.60
2018-11-25T15:48:51.793Z,17.77
2018-11-25T15:51:20.194Z,16.30
2018-11-25T15:53:48.313Z,16.40
2018-11-25T15:56:16.372Z,17.77
2018-11-25T15:58:45.158Z,18.70
2018-11-25T16:01:13.099Z,17.97
2018-11-25T16:03:41.190Z,17.40
2018-11-25T16:06:15.520Z,19.07
2018-11-25T16:08:43.227Z,17.80
2018-11-25T16:11:10.858Z,19.60
2018-11-25T16:13:38.548Z,18.43
2018-11-25T16:16:06.329Z,17.00
2018-11-25T16:18:33.947Z,18.70
2018-11-25T16:21:02.034Z,23.20
2018-11-25T16:23:29.789Z,25.53
2018-11-25T16:26:00.249Z,21.33
2018-11-25T16:28:35.548Z,19.57
2018-11-25T16:31:03.609Z,16.13
2018-11-25T16:33:31.173Z,19.57
2018-11-25T16:35:58.910Z,18.30
2018-11-25T16:38:26.618Z,20.37
2018-11-25T16:40:54.312Z,19.50
2018-11-25T16:43:22.097Z,19.50
2018-11-25T16:45:49.701Z,20.33
2018-11-25T16:48:17.612Z,18.70
2018-11-25T16:50:45.997Z,19.80
2018-11-25T16:53:13.874Z,21.60
2018-11-25T16:55:41.703Z,22.67
2018-11-25T16:58:09.699Z,22.17
2018-11-25T17:00:37.565Z,20.60
2018-11-25T17:03:06.046Z,20.80
2018-11-25T17:05:35.745Z,20.77
2018-11-25T17:08:09.937Z,21.90
2018-11-25T17:10:37.596Z,22.70
2018-11-25T17:13:06.097Z,22.13
2018-11-25T17:15:33.910Z,22.00
2018-11-25T17:18:01.585Z,22.17
2018-11-25T17:20:29.191Z,21.63
2018-11-25T17:22:56.926Z,20.50
2018-11-25T17:25:24.799Z,21.77
2018-11-25T17:27:52.712Z,20.60
2018-11-25T17:30:20.750Z,20.10
2018-11-25T17:32:48.846Z,22.70
2018-11-25T17:35:18.004Z,22.50
2018-11-25T17:37:45.712Z,20.70
2018-11-25T17:40:13.394Z,22.77
2018-11-25T17:42:41.103Z,22.90
2018-11-25T17:45:10.005Z,21.93
2018-11-25T17:47:37.749Z,24.03
2018-11-25T17:50:13.845Z,22.20
2018-11-25T17:52:41.524Z,23.30
2018-11-25T17:55:10.476Z,21.80
2018-11-25T17:57:38.322Z,24.73
2018-11-25T18:00:18.152Z,20.67
2018-11-25T18:02:45.926Z,21.17
2018-11-25T18:05:13.822Z,21.57
2018-11-25T18:07:41.694Z,23.20
2018-11-25T18:10:11.416Z,21.97
2018-11-25T18:12:39.119Z,22.37
2018-11-25T18:15:12.959Z,23.80
2018-11-25T18:17:43.110Z,20.57
2018-11-25T18:20:11.143Z,19.93
2018-11-25T18:22:42.919Z,19.17
2018-11-25T18:25:10.592Z,21.47
2018-11-25T18:27:38.235Z,55.37
2018-11-25T18:30:09.285Z,34.63
2018-11-25T18:32:37.181Z,25.10
2018-11-25T18:35:05.839Z,21.47
2018-11-25T18:37:33.650Z,21.77
2018-11-25T18:40:01.655Z,20.33
2018-11-25T18:42:29.428Z,20.30
2018-11-25T18:44:57.125Z,19.77
2018-11-25T18:47:24.932Z,21.30
2018-11-25T18:49:52.743Z,23.40
2018-11-25T18:52:20.440Z,20.27
2018-11-25T18:54:47.735Z,20.73
2018-11-25T18:57:15.676Z,21.50
2018-11-25T18:59:43.433Z,21.20
2018-11-25T19:02:38.091Z,21.70
2018-11-25T19:05:06.399Z,20.60
2018-11-25T19:07:34.210Z,19.90
2018-11-25T19:10:02.036Z,19.80
2018-11-25T19:12:29.741Z,20.37
2018-11-25T19:14:57.505Z,20.40
2018-11-25T19:17:25.212Z,20.07
2018-11-25T19:19:52.820Z,17.50
2018-11-25T19:22:20.496Z,18.73
2018-11-25T19:24:48.170Z,18.07
2018-11-25T19:27:15.992Z,19.53
2018-11-25T19:29:43.728Z,18.20
2018-11-25T19:32:11.375Z,19.47
2018-11-25T19:34:39.173Z,18.87
2018-11-25T19:37:06.856Z,17.57
2018-11-25T19:39:34.586Z,18.67
2018-11-25T19:42:02.119Z,19.37
2018-11-25T19:44:29.974Z,17.90
2018-11-25T19:46:57.739Z,18.90
2018-11-25T19:49:25.503Z,16.17
2018-11-25T19:51:53.195Z,18.70
2018-11-25T19:54:21.052Z,19.30
2018-11-25T19:56:49.128Z,18.00
2018-11-25T19:59:17.030Z,19.47
2018-11-25T20:01:45.063Z,17.00
2018-11-25T20:04:12.767Z,18.07
2018-11-25T20:06:40.640Z,19.63
2018-11-25T20:09:09.308Z,19.00
2018-11-25T20:11:37.182Z,18.37
2018-11-25T20:14:05.435Z,17.97
2018-11-25T20:16:38.508Z,17.17
2018-11-25T20:19:06.151Z,16.50
2018-11-25T20:21:39.370Z,17.37
2018-11-25T20:24:07.225Z,17.60
2018-11-25T20:26:35.124Z,20.93
2018-11-25T20:29:03.197Z,20.60
2018-11-25T20:31:31.376Z,18.13
2018-11-25T20:33:59.069Z,19.00
2018-11-25T20:36:26.942Z,17.13
2018-11-25T20:39:00.274Z,16.53
2018-11-25T20:41:28.177Z,17.50
2018-11-25T20:43:55.946Z,16.23
2018-11-25T20:46:29.371Z,16.30
2018-11-25T20:48:57.377Z,15.57
2018-11-25T20:51:30.833Z,22.40
2018-11-25T20:53:59.532Z,20.27
2018-11-25T20:56:27.360Z,18.00
2018-11-25T20:58:54.957Z,17.67
2018-11-25T21:01:22.827Z,17.43
2018-11-25T21:03:50.861Z,16.10
2018-11-25T21:06:18.911Z,17.13
2018-11-25T21:08:46.743Z,16.50
2018-11-25T21:11:14.516Z,19.23
2018-11-25T21:13:42.202Z,17.70
2018-11-25T21:16:10.080Z,16.80
2018-11-25T21:18:38.115Z,16.90
2018-11-25T21:21:05.985Z,17.30
2018-11-25T21:23:33.687Z,16.93
2018-11-25T21:26:01.594Z,18.87
2018-11-25T21:28:29.427Z,19.07
2018-11-25T21:30:57.275Z,15.73
2018-11-25T21:33:25.231Z,17.80
2018-11-25T21:35:52.953Z,17.47
2018-11-25T21:38:20.694Z,18.70
2018-11-25T21:40:48.478Z,18.43
2018-11-25T21:43:16.228Z,19.90
2018-11-25T21:45:43.887Z,20.03
2018-11-25T21:48:11.601Z,18.10
2018-11-25T21:50:39.414Z,18.63
2018-11-25T21:53:07.089Z,19.03
2018-11-25T21:55:34.636Z,18.43
2018-11-25T21:58:02.296Z,20.70
2018-11-25T22:00:30.092Z,22.17
2018-11-25T22:02:57.785Z,19.83
2018-11-25T22:05:25.451Z,21.50
2018-11-25T22:07:53.283Z,20.83
2018-11-25T22:10:21.138Z,21.83
2018-11-25T22:12:49.351Z,22.17
2018-11-25T22:15:18.431Z,22.70
2018-11-25T22:17:46.175Z,20.60
2018-11-25T22:20:14.570Z,21.40
2018-11-25T22:22:42.605Z,20.77
2018-11-25T22:25:11.343Z,22.70
2018-11-25T22:27:39.040Z,21.87
2018-11-25T22:30:09.423Z,22.53
2018-11-25T22:32:37.210Z,21.07
2018-11-25T22:35:07.345Z,21.53
2018-11-25T22:37:35.024Z,22.70
2018-11-25T22:40:02.745Z,25.50
2018-11-25T22:42:30.540Z,23.40
2018-11-25T22:44:58.408Z,23.63
2018-11-25T22:47:26.126Z,25.17
2018-11-25T22:49:53.867Z,23.40
2018-11-25T22:52:21.566Z,25.60
2018-11-25T22:54:49.502Z,25.40
2018-11-25T22:57:17.406Z,26.33
2018-11-25T22:59:45.243Z,24.40
2018-11-25T23:02:13.134Z,23.53
2018-11-25T23:04:52.335Z,25.30
2018-11-25T23:07:20.045Z,24.47
2018-11-25T23:09:47.802Z,26.70
2018-11-25T23:12:15.721Z,24.30
2018-11-25T23:14:43.424Z,26.17
2018-11-25T23:17:11.080Z,29.10
2018-11-25T23:19:38.826Z,25.87
2018-11-25T23:22:06.518Z,26.10
2018-11-25T23:24:34.228Z,24.40
2018-11-25T23:27:01.952Z,24.67
2018-11-25T23:29:29.616Z,26.47
2018-11-25T23:31:57.314Z,26.73
2018-11-25T23:34:24.985Z,24.67
2018-11-25T23:36:52.985Z,25.73
2018-11-25T23:39:20.671Z,25.00
2018-11-25T23:41:48.318Z,24.73
2018-11-25T23:44:15.987Z,27.07
2018-11-25T23:46:43.902Z,26.07
2018-11-25T23:49:11.588Z,25.67
2018-11-25T23:51:39.261Z,27.37
2018-11-25T23:54:07.116Z,25.90
2018-11-25T23:56:34.787Z,27.10
2018-11-25T23:59:02.487Z,27.20
